Blaamyra — LG4459 — position and weather

sailwx.info

Track history (hours):
 
Tides and Currents Weather Stations Pressure Air Temp Water Temp Dewpoint Dewpoint Depression Visibility Wind Speed Wind Dir Waves Ship Positions

Blaamyra

Last reported at 2018-Aug-16 19:58 UTC. Time now 2018-Aug-16 20:18 UTC.
Position N 66°30' E 012°06'.

Length 10 m.

Type: Pleasure craft. MMSI: 258512610.

Date/timePositionNaut miles runAvg speedWind from/ knotsBaromVisibWave heightAir tempDewpointWater temp
2018-Aug-16 19:58N 66°30' E 012°06'0 0.0
2018-Aug-16 19:28N 66°30' E 012°06'0 0.0
2018-Aug-16 18:58N 66°30' E 012°06'0 0.0
2018-Aug-16 18:28N 66°30' E 012°06'0 0.0
2018-Aug-16 17:58N 66°30' E 012°06'0 0.0
2018-Aug-16 17:28N 66°30' E 012°06'0 0.0
2018-Aug-16 16:58N 66°30' E 012°06'0 0.0
2018-Aug-16 16:29N 66°30' E 012°06'0 0.0
2018-Aug-16 15:58N 66°30' E 012°06'0 0.0
2018-Aug-16 15:29N 66°30' E 012°06'0 0.0
2018-Aug-16 14:59N 66°30' E 012°06'0 0.0
2018-Aug-16 14:29N 66°30' E 012°06'0 0.0
2018-Aug-16 13:59N 66°30' E 012°06'0 0.0
2018-Aug-16 13:29N 66°30' E 012°06'0 0.0
2018-Aug-16 12:59N 66°30' E 012°06'0 0.0
2018-Aug-16 12:29N 66°30' E 012°06'0 0.0
2018-Aug-16 11:59N 66°30' E 012°06'0 0.0
2018-Aug-16 11:29N 66°30' E 012°06'0 0.0
2018-Aug-16 10:59N 66°30' E 012°06'0 0.0
2018-Aug-16 10:29N 66°30' E 012°06'0 0.0
2018-Aug-16 09:59N 66°30' E 012°06'0 0.0
2018-Aug-16 09:29N 66°30' E 012°06'0 0.0
2018-Aug-16 08:59N 66°30' E 012°06'0 0.0
2018-Aug-16 08:29N 66°30' E 012°06'0 0.0
2018-Aug-15 14:16N 66°30' E 012°06'0 0.0
2018-Aug-15 13:58N 66°30' E 012°06'0 0.0
2018-Aug-15 13:28N 66°30' E 012°06'0 0.0
2018-Aug-15 12:58N 66°30' E 012°06'0 0.0
2018-Aug-15 12:28N 66°30' E 012°06'0 0.0
2018-Aug-15 11:58N 66°30' E 012°06'0 0.0
2018-Aug-15 11:28N 66°30' E 012°06'0 0.3
2018-Aug-15 11:00N 66°30' E 012°06'3 6.0
2018-Aug-15 10:30N 66°31' E 011°60'2 5.1
2018-Aug-15 10:00N 66°31' E 011°53'0 0.7
2018-Aug-15 09:30N 66°32' E 011°53'1 1.2
2018-Aug-15 08:57N 66°31' E 011°54'1 1.2
2018-Aug-15 08:23N 66°30' E 011°54'0 0.9
2018-Aug-15 07:55N 66°31' E 011°54'0 0.8
2018-Aug-15 07:29N 66°31' E 011°53'0 0.5
2018-Aug-15 06:37N 66°31' E 011°53'0 0.6
2018-Aug-15 06:25N 66°31' E 011°53'1 1.5
2018-Aug-15 05:59N 66°30' E 011°54'0 0.5
2018-Aug-15 05:11N 66°30' E 011°54'0 0.7
2018-Aug-15 04:59N 66°30' E 011°54'0 0.5
2018-Aug-15 04:30N 66°30' E 011°54'0 0.7
2018-Aug-15 03:56N 66°30' E 011°55'0 0.7
2018-Aug-15 03:30N 66°30' E 011°55'3 6.3
2018-Aug-15 03:00N 66°29' E 012°02'2 2.7
2018-Aug-15 02:26N 66°30' E 012°06'0 0.0
2018-Aug-15 01:59N 66°30' E 012°06'0 0.0
2018-Aug-15 01:29N 66°30' E 012°06'0 0.0
2018-Aug-15 00:59N 66°30' E 012°06'0 0.0
2018-Aug-15 00:29N 66°30' E 012°06'0 0.0
2018-Aug-14 23:59N 66°30' E 012°06'0 0.0
2018-Aug-14 23:29N 66°30' E 012°06'0 0.0
2018-Aug-14 22:59N 66°30' E 012°06'0 0.0
2018-Aug-14 22:29N 66°30' E 012°06'0 0.0
2018-Aug-14 21:59N 66°30' E 012°06'0 0.0
2018-Aug-14 21:29N 66°30' E 012°06'0 0.0
2018-Aug-14 20:59N 66°30' E 012°06'0 0.0
2018-Aug-14 20:29N 66°30' E 012°06'0 0.0
2018-Aug-14 19:59N 66°30' E 012°06'0 0.0
2018-Aug-14 19:29N 66°30' E 012°06'0 0.0
2018-Aug-14 18:59N 66°30' E 012°06'0 0.0
2018-Aug-14 18:29N 66°30' E 012°06'0 0.0
2018-Aug-14 17:59N 66°30' E 012°06'0 0.0
2018-Aug-14 17:29N 66°30' E 012°06'0 0.0
2018-Aug-14 16:59N 66°30' E 012°06'0 0.0
2018-Aug-14 16:29N 66°30' E 012°06'0 0.0
2018-Aug-14 15:59N 66°30' E 012°06'0 0.0
2018-Aug-14 15:29N 66°30' E 012°06'0 0.0
2018-Aug-14 14:59N 66°30' E 012°06'0 0.0
2018-Aug-14 14:29N 66°30' E 012°06'0 0.0
2018-Aug-14 13:59N 66°30' E 012°06'0 0.0
2018-Aug-14 13:29N 66°30' E 012°06'0 0.0
2018-Aug-14 12:59N 66°30' E 012°06'0 0.0
2018-Aug-14 12:29N 66°30' E 012°06'0 0.0
2018-Aug-14 11:59N 66°30' E 012°06'0 0.8
2018-Aug-14 11:28N 66°30' E 012°05'1 2.2
2018-Aug-14 11:00N 66°31' E 012°07'3 7.0
2018-Aug-14 10:30N 66°32' E 011°59'2 2.3
2018-Aug-14 09:44N 66°32' E 011°54'0 0.8
2018-Aug-14 09:23N 66°32' E 011°54'1 1.7
2018-Aug-14 09:00N 66°33' E 011°55'0 0.1
2018-Aug-14 08:11N 66°33' E 011°55'0 2.3
2018-Aug-14 08:00N 66°33' E 011°55'2 4.6
2018-Aug-14 07:30N 66°35' E 011°59'1 0.7
2018-Aug-14 06:48N 66°36' E 011°59'1 0.6
2018-Aug-14 05:46N 66°36' E 012°01'0 1.2
2018-Aug-14 05:30N 66°36' E 012°01'1 0.7
2018-Aug-14 04:42N 66°36' E 012°02'0 0.7
2018-Aug-14 04:30N 66°36' E 012°02'3 6.6
2018-Aug-14 04:00N 66°33' E 012°05'3 6.3
2018-Aug-14 03:30N 66°30' E 012°06'0 0.2
2018-Aug-14 02:59N 66°30' E 012°06'0 0.0
2018-Aug-14 02:29N 66°30' E 012°06'0 0.0
2018-Aug-14 01:59N 66°30' E 012°06'0 0.0
2018-Aug-14 01:29N 66°30' E 012°06'0 0.0
2018-Aug-14 00:59N 66°30' E 012°06'0 0.0
2018-Aug-14 00:29N 66°30' E 012°06'0 0.0
2018-Aug-13 23:59N 66°30' E 012°06'0 0.0
2018-Aug-13 23:29N 66°30' E 012°06'0 0.0
2018-Aug-13 22:59N 66°30' E 012°06'0 0.0
2018-Aug-13 22:29N 66°30' E 012°06'0 0.0
2018-Aug-13 21:59N 66°30' E 012°06'0 0.0
2018-Aug-13 21:29N 66°30' E 012°06'0 0.0
2018-Aug-13 20:59N 66°30' E 012°06'0 0.0
2018-Aug-13 20:29N 66°30' E 012°06'0 0.0
2018-Aug-13 19:56N 66°30' E 012°06'0 0.0
2018-Aug-13 19:29N 66°30' E 012°06'0 0.0
2018-Aug-13 18:59N 66°30' E 012°06'0 0.0
2018-Aug-13 18:29N 66°30' E 012°06'0 0.0
2018-Aug-13 17:59N 66°30' E 012°06'0 0.0
2018-Aug-13 17:29N 66°30' E 012°06'0 0.0
2018-Aug-13 16:59N 66°30' E 012°06'0 0.0
2018-Aug-13 16:29N 66°30' E 012°06'0 0.0
2018-Aug-13 15:59N 66°30' E 012°06'0 0.0
2018-Aug-13 15:29N 66°30' E 012°06'0 0.0
2018-Aug-13 14:59N 66°30' E 012°06'0 0.0
2018-Aug-13 14:26N 66°30' E 012°06'0 0.0
2018-Aug-13 13:59N 66°30' E 012°06'0 0.0
2018-Aug-13 13:29N 66°30' E 012°06'0 0.0
2018-Aug-13 12:59N 66°30' E 012°06'0 0.0
2018-Aug-13 12:29N 66°30' E 012°06'0 0.0
2018-Aug-13 11:59N 66°30' E 012°06'0 0.0
2018-Aug-13 11:29N 66°30' E 012°06'0 0.0
2018-Aug-13 10:59N 66°30' E 012°06'0 0.0
2018-Aug-13 10:29N 66°30' E 012°06'0 0.0
2018-Aug-13 09:59N 66°30' E 012°06'0 0.0
2018-Aug-13 09:29N 66°30' E 012°06'0 0.0
2018-Aug-13 08:53N 66°30' E 012°06'0 0.0
2018-Aug-13 08:29N 66°30' E 012°06'0 0.0
2018-Aug-13 07:59N 66°30' E 012°06'0 0.0
2018-Aug-13 07:29N 66°30' E 012°06'0 0.0
2018-Aug-13 06:59N 66°30' E 012°06'0 0.0
2018-Aug-13 06:26N 66°30' E 012°06'0 0.0
2018-Aug-13 05:59N 66°30' E 012°06'0 0.0
2018-Aug-13 05:29N 66°30' E 012°06'0 0.0
2018-Aug-13 04:59N 66°30' E 012°06'0 0.0
2018-Aug-13 04:29N 66°30' E 012°06'0 0.0
2018-Aug-13 03:59N 66°30' E 012°06'0 0.0
2018-Aug-13 03:29N 66°30' E 012°06'0 0.0
2018-Aug-13 02:59N 66°30' E 012°06'0 0.0
2018-Aug-13 02:29N 66°30' E 012°06'0 0.0
2018-Aug-13 01:59N 66°30' E 012°06'0 0.0
2018-Aug-13 01:23N 66°30' E 012°06'0 0.0
2018-Aug-13 00:59N 66°30' E 012°06'0 0.0
2018-Aug-13 00:29N 66°30' E 012°06'0 0.0
2018-Aug-12 23:59N 66°30' E 012°06'0 0.0
2018-Aug-12 23:29N 66°30' E 012°06'0 0.0
2018-Aug-12 22:59N 66°30' E 012°06'0 0.0
2018-Aug-12 22:29N 66°30' E 012°06'0 0.0
2018-Aug-12 21:59N 66°30' E 012°06'0 0.0
2018-Aug-12 21:29N 66°30' E 012°06'0 0.0
2018-Aug-12 20:59N 66°30' E 012°06'0 0.0
2018-Aug-12 20:29N 66°30' E 012°06'0 0.0
2018-Aug-12 19:59N 66°30' E 012°06'0 0.0
2018-Aug-12 19:29N 66°30' E 012°06'0 0.0
2018-Aug-12 18:59N 66°30' E 012°06'0 0.0
2018-Aug-12 18:29N 66°30' E 012°06'0 0.0
2018-Aug-12 17:59N 66°30' E 012°06'0 0.0
2018-Aug-12 17:29N 66°30' E 012°06'0 0.0
2018-Aug-12 16:59N 66°30' E 012°06'0 0.0
2018-Aug-12 16:29N 66°30' E 012°06'0 0.0
2018-Aug-12 15:59N 66°30' E 012°06'0 0.0
2018-Aug-12 15:29N 66°30' E 012°06'0 0.0
2018-Aug-12 14:59N 66°30' E 012°06'0 0.0
2018-Aug-12 14:29N 66°30' E 012°06'0 0.0
2018-Aug-12 13:59N 66°30' E 012°06'0 0.0
2018-Aug-12 13:29N 66°30' E 012°06'0 0.0
2018-Aug-12 12:59N 66°30' E 012°06'0 0.0
2018-Aug-12 12:29N 66°30' E 012°06'0 0.0
2018-Aug-12 11:59N 66°30' E 012°06'0 0.0
2018-Aug-12 11:29N 66°30' E 012°06'0 0.0
2018-Aug-12 10:59N 66°30' E 012°06'0 0.0
2018-Aug-12 10:29N 66°30' E 012°06'0 0.0
2018-Aug-12 09:59N 66°30' E 012°06'0 0.0
2018-Aug-12 09:29N 66°30' E 012°06'0 0.0
2018-Aug-12 08:59N 66°30' E 012°06'0 0.0
2018-Aug-12 08:29N 66°30' E 012°06'0 0.0
2018-Aug-12 07:59N 66°30' E 012°06'0 0.0
2018-Aug-12 07:29N 66°30' E 012°06'0 0.0
2018-Aug-12 06:59N 66°30' E 012°06'0 0.0
2018-Aug-12 06:29N 66°30' E 012°06'0 0.0
2018-Aug-12 05:59N 66°30' E 012°06'0 0.0
2018-Aug-12 05:29N 66°30' E 012°06'0 0.0
2018-Aug-12 04:59N 66°30' E 012°06'0 0.0
2018-Aug-12 04:29N 66°30' E 012°06'0 0.0
2018-Aug-12 03:59N 66°30' E 012°06'0 0.0
2018-Aug-12 03:29N 66°30' E 012°06'0 0.0
2018-Aug-12 02:59N 66°30' E 012°06'0 0.0
2018-Aug-12 02:29N 66°30' E 012°06'0 0.0
2018-Aug-12 01:56N 66°30' E 012°06'0 0.0
2018-Aug-12 01:29N 66°30' E 012°06'0 0.0
2018-Aug-12 00:59N 66°30' E 012°06'0 0.0
2018-Aug-12 00:29N 66°30' E 012°06'0 0.0
2018-Aug-11 23:59N 66°30' E 012°06'0 0.0
2018-Aug-11 23:29N 66°30' E 012°06'0 0.0
2018-Aug-11 22:59N 66°30' E 012°06'0 0.0
2018-Aug-11 22:29N 66°30' E 012°06'0 0.0
2018-Aug-11 21:59N 66°30' E 012°06'0 0.0
2018-Aug-11 21:29N 66°30' E 012°06'0 0.0
2018-Aug-11 20:59N 66°30' E 012°06'0 0.0
2018-Aug-11 20:29N 66°30' E 012°06'0 0.0
2018-Aug-11 19:59N 66°30' E 012°06'0 0.0
2018-Aug-11 19:29N 66°30' E 012°06'0 0.0
2018-Aug-11 18:59N 66°30' E 012°06'0 0.0
2018-Aug-11 18:29N 66°30' E 012°06'0 0.0
2018-Aug-11 17:59N 66°30' E 012°06'0 0.0
2018-Aug-11 17:29N 66°30' E 012°06'0 0.0
2018-Aug-11 16:59N 66°30' E 012°06'0 0.0
2018-Aug-11 16:26N 66°30' E 012°06'0 0.0
2018-Aug-11 15:59N 66°30' E 012°06'0 0.0
2018-Aug-11 15:29N 66°30' E 012°06'0 0.0
2018-Aug-11 14:59N 66°30' E 012°06'0 0.0
2018-Aug-11 14:29N 66°30' E 012°06'0 0.0
2018-Aug-11 13:59N 66°30' E 012°06'0 0.0
2018-Aug-11 13:29N 66°30' E 012°06'0 0.0
2018-Aug-11 12:59N 66°30' E 012°06'0 0.0
2018-Aug-11 12:29N 66°30' E 012°06'0 0.0
2018-Aug-11 11:59N 66°30' E 012°06'0 0.0
2018-Aug-11 11:29N 66°30' E 012°06'0 0.0
2018-Aug-11 10:59N 66°30' E 012°06'0 0.0
2018-Aug-11 10:29N 66°30' E 012°06'0 0.0
2018-Aug-11 09:59N 66°30' E 012°06'0 0.0
2018-Aug-11 09:29N 66°30' E 012°06'0 0.0
2018-Aug-11 08:59N 66°30' E 012°06'0 0.0
2018-Aug-11 08:29N 66°30' E 012°06'0 0.0
2018-Aug-11 07:59N 66°30' E 012°06'0 0.0
2018-Aug-11 07:29N 66°30' E 012°06'0 0.0
2018-Aug-11 06:59N 66°30' E 012°06'0 0.0
2018-Aug-11 06:29N 66°30' E 012°06'0 0.0
2018-Aug-11 05:59N 66°30' E 012°06'0 0.0
2018-Aug-11 05:29N 66°30' E 012°06'0 0.0
2018-Aug-11 04:59N 66°30' E 012°06'0 0.0
2018-Aug-11 04:29N 66°30' E 012°06'0 0.0
2018-Aug-11 03:59N 66°30' E 012°06'0 0.0
2018-Aug-11 03:29N 66°30' E 012°06'0 0.0
2018-Aug-11 02:59N 66°30' E 012°06'0 0.0
2018-Aug-11 02:29N 66°30' E 012°06'0 0.0
2018-Aug-11 01:59N 66°30' E 012°06'0 0.0
2018-Aug-11 01:29N 66°30' E 012°06'0 0.0
2018-Aug-11 00:59N 66°30' E 012°06'0 0.0
2018-Aug-11 00:29N 66°30' E 012°06'0 0.0
2018-Aug-10 23:59N 66°30' E 012°06'0 0.0
2018-Aug-10 23:29N 66°30' E 012°06'0 0.0
2018-Aug-10 22:59N 66°30' E 012°06'0 0.0
2018-Aug-10 22:29N 66°30' E 012°06'0 0.0
2018-Aug-10 21:59N 66°30' E 012°06'0 0.0
2018-Aug-10 21:29N 66°30' E 012°06'0 0.0
2018-Aug-10 20:59N 66°30' E 012°06'0 0.0
2018-Aug-10 20:29N 66°30' E 012°06'0 0.0
2018-Aug-10 19:59N 66°30' E 012°06'0 0.0
2018-Aug-10 19:29N 66°30' E 012°06'0 0.0
2018-Aug-10 18:59N 66°30' E 012°06'0 0.0
2018-Aug-10 18:29N 66°30' E 012°06'0 0.0
2018-Aug-10 17:53N 66°30' E 012°06'0 0.0
2018-Aug-10 17:29N 66°30' E 012°06'0 0.0
2018-Aug-10 16:59N 66°30' E 012°06'0 0.0
2018-Aug-10 16:29N 66°30' E 012°06'0 0.0
2018-Aug-10 15:59N 66°30' E 012°06'0 0.0
2018-Aug-10 15:29N 66°30' E 012°06'0 0.0
2018-Aug-10 14:59N 66°30' E 012°06'0 0.0
2018-Aug-10 14:29N 66°30' E 012°06'0 0.0
2018-Aug-10 13:56N 66°30' E 012°06'0 0.0
2018-Aug-10 13:29N 66°30' E 012°06'0 0.0
2018-Aug-10 12:59N 66°30' E 012°06'0 0.0
2018-Aug-10 12:29N 66°30' E 012°06'0 0.0
2018-Aug-10 11:59N 66°30' E 012°06'0 0.0
2018-Aug-10 11:29N 66°30' E 012°06'0 0.0
2018-Aug-10 10:59N 66°30' E 012°06'0 0.0
2018-Aug-10 10:29N 66°30' E 012°06'0 0.0
2018-Aug-10 09:59N 66°30' E 012°06'0 0.8
2018-Aug-10 09:29N 66°30' E 012°05'1 1.8
2018-Aug-10 09:00N 66°29' E 012°04'3 6.9
2018-Aug-10 08:30N 66°31' E 011°57'1 2.3
2018-Aug-10 07:57N 66°31' E 011°53'0 0.8
2018-Aug-10 07:26N 66°32' E 011°53'1 3.3
2018-Aug-10 07:00N 66°30' E 011°54'0 0.9
2018-Aug-10 06:30N 66°31' E 011°54'1 1.3
2018-Aug-10 06:00N 66°31' E 011°53'0 0.3
2018-Aug-10 05:25N 66°31' E 011°52'0 0.6
2018-Aug-10 05:00N 66°31' E 011°53'1 2.0
2018-Aug-10 04:30N 66°30' E 011°54'0 0.8
2018-Aug-10 04:00N 66°30' E 011°54'1 1.6
2018-Aug-10 03:30N 66°29' E 011°55'1 0.8
2018-Aug-10 02:50N 66°30' E 011°55'2 4.9
2018-Aug-10 02:31N 66°30' E 011°59'3 5.7
2018-Aug-10 02:00N 66°30' E 012°06'0 0.0
2018-Aug-10 01:28N 66°30' E 012°06'0 0.0
2018-Aug-10 00:58N 66°30' E 012°06'0 0.0
2018-Aug-10 00:28N 66°30' E 012°06'0 0.0
2018-Aug-09 23:58N 66°30' E 012°06'0 0.0
2018-Aug-09 23:28N 66°30' E 012°06'0 0.0
2018-Aug-09 22:58N 66°30' E 012°06'0 0.0
2018-Aug-09 22:28N 66°30' E 012°06'0 0.0
2018-Aug-09 21:58N 66°30' E 012°06'0 0.0
2018-Aug-09 21:28N 66°30' E 012°06'0 0.0
2018-Aug-09 20:58N 66°30' E 012°06'0 0.0
2018-Aug-09 20:28N 66°30' E 012°06'0 0.0
2018-Aug-09 19:58N 66°30' E 012°06'0 0.0
2018-Aug-09 19:28N 66°30' E 012°06'0 0.0
2018-Aug-09 18:58N 66°30' E 012°06'0 0.0
2018-Aug-09 18:25N 66°30' E 012°06'0 0.0
2018-Aug-09 17:58N 66°30' E 012°06'0 0.0
2018-Aug-09 17:28N 66°30' E 012°06'0 0.0
2018-Aug-09 16:55N 66°30' E 012°06'0 0.0
2018-Aug-09 16:28N 66°30' E 012°06'0 0.0
2018-Aug-09 15:58N 66°30' E 012°06'0 0.0
2018-Aug-09 15:28N 66°30' E 012°06'0 0.0
2018-Aug-09 14:58N 66°30' E 012°06'0 0.0
2018-Aug-09 14:28N 66°30' E 012°06'0 0.0
2018-Aug-09 13:58N 66°30' E 012°06'0 0.0
2018-Aug-09 13:28N 66°30' E 012°06'0 0.0
2018-Aug-09 12:58N 66°30' E 012°06'0 0.0
2018-Aug-09 12:28N 66°30' E 012°06'0 0.0
2018-Aug-09 11:58N 66°30' E 012°06'0 0.0
2018-Aug-09 11:28N 66°30' E 012°06'0 0.0
2018-Aug-09 10:58N 66°30' E 012°06'0 0.0
2018-Aug-09 10:28N 66°30' E 012°06'0 0.0
2018-Aug-09 09:58N 66°30' E 012°06'0 0.0
2018-Aug-09 09:28N 66°30' E 012°06'0 0.0
2018-Aug-09 08:58N 66°30' E 012°06'0 0.0
2018-Aug-09 08:28N 66°30' E 012°06'0 0.0
2018-Aug-09 07:58N 66°30' E 012°06'0 0.0
2018-Aug-09 07:28N 66°30' E 012°06'0 0.0
2018-Aug-09 06:58N 66°30' E 012°06'0 0.0
2018-Aug-09 06:28N 66°30' E 012°06'0 0.0
2018-Aug-09 05:58N 66°30' E 012°06'0 0.0
2018-Aug-09 05:28N 66°30' E 012°06'0 0.0
2018-Aug-09 04:58N 66°30' E 012°06'0 0.0
2018-Aug-09 04:28N 66°30' E 012°06'0 0.0
2018-Aug-09 03:58N 66°30' E 012°06'0 0.0
2018-Aug-09 03:28N 66°30' E 012°06'0 0.0
2018-Aug-09 02:58N 66°30' E 012°06'0 0.0
2018-Aug-09 02:28N 66°30' E 012°06'0 0.0
2018-Aug-09 01:58N 66°30' E 012°06'0 0.0
2018-Aug-09 01:28N 66°30' E 012°06'0 0.0
2018-Aug-09 00:58N 66°30' E 012°06'0 0.0
2018-Aug-09 00:28N 66°30' E 012°06'0 0.0
2018-Aug-08 23:58N 66°30' E 012°06'0 0.0
2018-Aug-08 23:28N 66°30' E 012°06'0 0.0
2018-Aug-08 22:58N 66°30' E 012°06'0 0.0
2018-Aug-08 22:28N 66°30' E 012°06'0 0.0
2018-Aug-08 21:58N 66°30' E 012°06'0 0.0
2018-Aug-08 21:28N 66°30' E 012°06'0 0.0
2018-Aug-08 20:58N 66°30' E 012°06'0 0.0
2018-Aug-08 20:28N 66°30' E 012°06'0 0.0
2018-Aug-08 19:58N 66°30' E 012°06'0 0.0
2018-Aug-08 19:28N 66°30' E 012°06'0 0.0
2018-Aug-08 18:58N 66°30' E 012°06'0 0.0
2018-Aug-08 18:28N 66°30' E 012°06'0 0.0
2018-Aug-08 17:55N 66°30' E 012°06'0 0.0
2018-Aug-08 17:28N 66°30' E 012°06'0 0.0
2018-Aug-08 16:58N 66°30' E 012°06'0 0.0
2018-Aug-08 16:28N 66°30' E 012°06'0 0.0
2018-Aug-08 15:58N 66°30' E 012°06'0 0.0
2018-Aug-08 15:28N 66°30' E 012°06'0 0.0
2018-Aug-08 14:58N 66°30' E 012°06'0 0.0
2018-Aug-08 14:28N 66°30' E 012°06'0 0.0
2018-Aug-08 13:58N 66°30' E 012°06'0 0.0
2018-Aug-08 13:28N 66°30' E 012°06'0 0.0
2018-Aug-08 12:58N 66°30' E 012°06'0 0.0
2018-Aug-08 12:28N 66°30' E 012°06'0 0.0
2018-Aug-08 11:58N 66°30' E 012°06'0 0.0
2018-Aug-08 11:28N 66°30' E 012°06'0 0.8
2018-Aug-08 11:00N 66°30' E 012°05'0 0.0
2018-Aug-08 10:30N 66°30' E 012°05'2 3.8
2018-Aug-08 10:00N 66°31' E 012°02'3 5.7
2018-Aug-08 09:30N 66°33' E 011°56'1 1.5
2018-Aug-08 08:56N 66°32' E 011°54'0 0.7
2018-Aug-08 08:26N 66°32' E 011°54'1 1.1
2018-Aug-08 07:59N 66°33' E 011°55'0 0.3
2018-Aug-08 07:26N 66°33' E 011°55'2 3.3
2018-Aug-08 06:56N 66°35' E 011°56'1 3.2
2018-Aug-08 06:30N 66°35' E 011°59'1 1.0
2018-Aug-08 05:58N 66°36' E 011°60'1 1.0
2018-Aug-08 05:27N 66°36' E 012°00'0 0.8
2018-Aug-08 05:00N 66°36' E 012°01'0 0.7
2018-Aug-08 04:30N 66°36' E 012°01'1 0.9
2018-Aug-08 03:53N 66°36' E 012°02'2 2.1
2018-Aug-08 03:07N 66°35' E 012°04'1 7.0
2018-Aug-08 03:00N 66°34' E 012°05'3 7.0
2018-Aug-08 02:30N 66°30' E 012°07'1 1.1
2018-Aug-08 02:00N 66°30' E 012°06'0 0.0
2018-Aug-08 01:30N 66°30' E 012°06'0 0.0
2018-Aug-08 01:00N 66°30' E 012°06'0 0.0
2018-Aug-08 00:30N 66°30' E 012°06'0 0.0
2018-Aug-08 00:00N 66°30' E 012°06'0 0.0
2018-Aug-07 23:30N 66°30' E 012°06'0 0.0
2018-Aug-07 23:00N 66°30' E 012°06'0 0.0
2018-Aug-07 22:30N 66°30' E 012°06'0 0.0
2018-Aug-07 21:57N 66°30' E 012°06'0 0.0
2018-Aug-07 21:30N 66°30' E 012°06'0 0.0
2018-Aug-07 21:00N 66°30' E 012°06'0 0.0
2018-Aug-07 20:30N 66°30' E 012°06'0 0.0
2018-Aug-07 20:00N 66°30' E 012°06'0 0.0
2018-Aug-07 19:30N 66°30' E 012°06'0 0.0
2018-Aug-07 19:00N 66°30' E 012°06'0 0.0
2018-Aug-07 18:30N 66°30' E 012°06'0 0.0
2018-Aug-07 18:00N 66°30' E 012°06'0 0.0
2018-Aug-07 17:27N 66°30' E 012°06'0 0.0
2018-Aug-07 17:00N 66°30' E 012°06'0 0.0
2018-Aug-07 16:30N 66°30' E 012°06'0 0.0
2018-Aug-07 16:00N 66°30' E 012°06'0 0.0
2018-Aug-07 15:30N 66°30' E 012°06'0 0.0
2018-Aug-07 15:00N 66°30' E 012°06'0 0.0
2018-Aug-07 14:30N 66°30' E 012°06'0 0.0
2018-Aug-07 13:57N 66°30' E 012°06'0 0.0
2018-Aug-07 13:30N 66°30' E 012°06'0 0.0
2018-Aug-07 13:00N 66°30' E 012°06'0 0.0
2018-Aug-07 12:30N 66°30' E 012°06'0 0.0
2018-Aug-07 12:00N 66°30' E 012°06'0 0.0
2018-Aug-07 11:30N 66°30' E 012°06'0 0.0
2018-Aug-07 11:00N 66°30' E 012°06'0 0.0
2018-Aug-07 10:30N 66°30' E 012°06'0 0.0
2018-Aug-07 10:00N 66°30' E 012°06'0 0.0
2018-Aug-07 09:31N 66°30' E 012°06'0 0.0
2018-Aug-07 09:01N 66°30' E 012°06'0 0.0
2018-Aug-07 08:31N 66°30' E 012°06'0 0.0
2018-Aug-07 08:01N 66°30' E 012°06'0 0.0
2018-Aug-07 07:30N 66°30' E 012°06'0 0.0
2018-Aug-07 07:01N 66°30' E 012°06'0 0.0
2018-Aug-07 06:31N 66°30' E 012°06'0 0.0
2018-Aug-07 06:01N 66°30' E 012°06'0 0.0
2018-Aug-07 05:31N 66°30' E 012°06'0 0.0
2018-Aug-07 04:58N 66°30' E 012°06'0 0.0
2018-Aug-07 04:28N 66°30' E 012°06'0 0.0
2018-Aug-07 03:58N 66°30' E 012°06'0 0.0
2018-Aug-07 03:28N 66°30' E 012°06'0 0.0
2018-Aug-07 02:58N 66°30' E 012°06'0 0.0
2018-Aug-07 02:28N 66°30' E 012°06'0 0.0
2018-Aug-07 01:58N 66°30' E 012°06'0 0.0
2018-Aug-07 01:28N 66°30' E 012°06'0 0.0
2018-Aug-07 00:55N 66°30' E 012°06'0 0.0
2018-Aug-07 00:22N 66°30' E 012°06'0 0.0
2018-Aug-06 23:58N 66°30' E 012°06'0 0.0
2018-Aug-06 23:28N 66°30' E 012°06'0 0.0
2018-Aug-06 22:58N 66°30' E 012°06'0 0.0
2018-Aug-06 22:28N 66°30' E 012°06'0 0.0
2018-Aug-06 21:55N 66°30' E 012°06'0 0.0
2018-Aug-06 21:28N 66°30' E 012°06'0 0.0
2018-Aug-06 20:58N 66°30' E 012°06'0 0.0
2018-Aug-06 20:28N 66°30' E 012°06'  
Track history (hours):
 
Tides and Currents Weather Stations Pressure Air Temp Water Temp Dewpoint Dewpoint Depression Visibility Wind Speed Wind Dir Waves Ship Positions

Blaamyra

Last reported at 2018-Aug-16 19:58 UTC. Time now 2018-Aug-16 20:18 UTC.
Position N 66°30' E 012°06'.

Length 10 m.

Type: Pleasure craft. MMSI: 258512610.

Date/timePositionNaut miles runAvg speedWind from/ knotsBaromVisibWave heightAir tempDewpointWater temp
2018-Aug-16 19:58N 66°30' E 012°06'0 0.0
2018-Aug-16 19:28N 66°30' E 012°06'0 0.0
2018-Aug-16 18:58N 66°30' E 012°06'0 0.0
2018-Aug-16 18:28N 66°30' E 012°06'0 0.0
2018-Aug-16 17:58N 66°30' E 012°06'0 0.0
2018-Aug-16 17:28N 66°30' E 012°06'0 0.0
2018-Aug-16 16:58N 66°30' E 012°06'0 0.0
2018-Aug-16 16:29N 66°30' E 012°06'0 0.0
2018-Aug-16 15:58N 66°30' E 012°06'0 0.0
2018-Aug-16 15:29N 66°30' E 012°06'0 0.0
2018-Aug-16 14:59N 66°30' E 012°06'0 0.0
2018-Aug-16 14:29N 66°30' E 012°06'0 0.0
2018-Aug-16 13:59N 66°30' E 012°06'0 0.0
2018-Aug-16 13:29N 66°30' E 012°06'0 0.0
2018-Aug-16 12:59N 66°30' E 012°06'0 0.0
2018-Aug-16 12:29N 66°30' E 012°06'0 0.0
2018-Aug-16 11:59N 66°30' E 012°06'0 0.0
2018-Aug-16 11:29N 66°30' E 012°06'0 0.0
2018-Aug-16 10:59N 66°30' E 012°06'0 0.0
2018-Aug-16 10:29N 66°30' E 012°06'0 0.0
2018-Aug-16 09:59N 66°30' E 012°06'0 0.0
2018-Aug-16 09:29N 66°30' E 012°06'0 0.0
2018-Aug-16 08:59N 66°30' E 012°06'0 0.0
2018-Aug-16 08:29N 66°30' E 012°06'0 0.0
2018-Aug-15 14:16N 66°30' E 012°06'0 0.0
2018-Aug-15 13:58N 66°30' E 012°06'0 0.0
2018-Aug-15 13:28N 66°30' E 012°06'0 0.0
2018-Aug-15 12:58N 66°30' E 012°06'0 0.0
2018-Aug-15 12:28N 66°30' E 012°06'0 0.0
2018-Aug-15 11:58N 66°30' E 012°06'0 0.0
2018-Aug-15 11:28N 66°30' E 012°06'0 0.3
2018-Aug-15 11:00N 66°30' E 012°06'3 6.0
2018-Aug-15 10:30N 66°31' E 011°60'2 5.1
2018-Aug-15 10:00N 66°31' E 011°53'0 0.7
2018-Aug-15 09:30N 66°32' E 011°53'1 1.2
2018-Aug-15 08:57N 66°31' E 011°54'1 1.2
2018-Aug-15 08:23N 66°30' E 011°54'0 0.9
2018-Aug-15 07:55N 66°31' E 011°54'0 0.8
2018-Aug-15 07:29N 66°31' E 011°53'0 0.5
2018-Aug-15 06:37N 66°31' E 011°53'0 0.6
2018-Aug-15 06:25N 66°31' E 011°53'1 1.5
2018-Aug-15 05:59N 66°30' E 011°54'0 0.5
2018-Aug-15 05:11N 66°30' E 011°54'0 0.7
2018-Aug-15 04:59N 66°30' E 011°54'0 0.5
2018-Aug-15 04:30N 66°30' E 011°54'0 0.7
2018-Aug-15 03:56N 66°30' E 011°55'0 0.7
2018-Aug-15 03:30N 66°30' E 011°55'3 6.3
2018-Aug-15 03:00N 66°29' E 012°02'2 2.7
2018-Aug-15 02:26N 66°30' E 012°06'0 0.0
2018-Aug-15 01:59N 66°30' E 012°06'0 0.0
2018-Aug-15 01:29N 66°30' E 012°06'0 0.0
2018-Aug-15 00:59N 66°30' E 012°06'0 0.0
2018-Aug-15 00:29N 66°30' E 012°06'0 0.0
2018-Aug-14 23:59N 66°30' E 012°06'0 0.0
2018-Aug-14 23:29N 66°30' E 012°06'0 0.0
2018-Aug-14 22:59N 66°30' E 012°06'0 0.0
2018-Aug-14 22:29N 66°30' E 012°06'0 0.0
2018-Aug-14 21:59N 66°30' E 012°06'0 0.0
2018-Aug-14 21:29N 66°30' E 012°06'0 0.0
2018-Aug-14 20:59N 66°30' E 012°06'0 0.0
2018-Aug-14 20:29N 66°30' E 012°06'0 0.0
2018-Aug-14 19:59N 66°30' E 012°06'0 0.0
2018-Aug-14 19:29N 66°30' E 012°06'0 0.0
2018-Aug-14 18:59N 66°30' E 012°06'0 0.0
2018-Aug-14 18:29N 66°30' E 012°06'0 0.0
2018-Aug-14 17:59N 66°30' E 012°06'0 0.0
2018-Aug-14 17:29N 66°30' E 012°06'0 0.0
2018-Aug-14 16:59N 66°30' E 012°06'0 0.0
2018-Aug-14 16:29N 66°30' E 012°06'0 0.0
2018-Aug-14 15:59N 66°30' E 012°06'0 0.0
2018-Aug-14 15:29N 66°30' E 012°06'0 0.0
2018-Aug-14 14:59N 66°30' E 012°06'0 0.0
2018-Aug-14 14:29N 66°30' E 012°06'0 0.0
2018-Aug-14 13:59N 66°30' E 012°06'0 0.0
2018-Aug-14 13:29N 66°30' E 012°06'0 0.0
2018-Aug-14 12:59N 66°30' E 012°06'0 0.0
2018-Aug-14 12:29N 66°30' E 012°06'0 0.0
2018-Aug-14 11:59N 66°30' E 012°06'0 0.8
2018-Aug-14 11:28N 66°30' E 012°05'1 2.2
2018-Aug-14 11:00N 66°31' E 012°07'3 7.0
2018-Aug-14 10:30N 66°32' E 011°59'2 2.3
2018-Aug-14 09:44N 66°32' E 011°54'0 0.8
2018-Aug-14 09:23N 66°32' E 011°54'1 1.7
2018-Aug-14 09:00N 66°33' E 011°55'0 0.1
2018-Aug-14 08:11N 66°33' E 011°55'0 2.3
2018-Aug-14 08:00N 66°33' E 011°55'2 4.6
2018-Aug-14 07:30N 66°35' E 011°59'1 0.7
2018-Aug-14 06:48N 66°36' E 011°59'1 0.6
2018-Aug-14 05:46N 66°36' E 012°01'0 1.2
2018-Aug-14 05:30N 66°36' E 012°01'1 0.7
2018-Aug-14 04:42N 66°36' E 012°02'0 0.7
2018-Aug-14 04:30N 66°36' E 012°02'3 6.6
2018-Aug-14 04:00N 66°33' E 012°05'3 6.3
2018-Aug-14 03:30N 66°30' E 012°06'0 0.2
2018-Aug-14 02:59N 66°30' E 012°06'0 0.0
2018-Aug-14 02:29N 66°30' E 012°06'0 0.0
2018-Aug-14 01:59N 66°30' E 012°06'0 0.0
2018-Aug-14 01:29N 66°30' E 012°06'0 0.0
2018-Aug-14 00:59N 66°30' E 012°06'0 0.0
2018-Aug-14 00:29N 66°30' E 012°06'0 0.0
2018-Aug-13 23:59N 66°30' E 012°06'0 0.0
2018-Aug-13 23:29N 66°30' E 012°06'0 0.0
2018-Aug-13 22:59N 66°30' E 012°06'0 0.0
2018-Aug-13 22:29N 66°30' E 012°06'0 0.0
2018-Aug-13 21:59N 66°30' E 012°06'0 0.0
2018-Aug-13 21:29N 66°30' E 012°06'0 0.0
2018-Aug-13 20:59N 66°30' E 012°06'0 0.0
2018-Aug-13 20:29N 66°30' E 012°06'0 0.0
2018-Aug-13 19:56N 66°30' E 012°06'0 0.0
2018-Aug-13 19:29N 66°30' E 012°06'0 0.0
2018-Aug-13 18:59N 66°30' E 012°06'0 0.0
2018-Aug-13 18:29N 66°30' E 012°06'0 0.0
2018-Aug-13 17:59N 66°30' E 012°06'0 0.0
2018-Aug-13 17:29N 66°30' E 012°06'0 0.0
2018-Aug-13 16:59N 66°30' E 012°06'0 0.0
2018-Aug-13 16:29N 66°30' E 012°06'0 0.0
2018-Aug-13 15:59N 66°30' E 012°06'0 0.0
2018-Aug-13 15:29N 66°30' E 012°06'0 0.0
2018-Aug-13 14:59N 66°30' E 012°06'0 0.0
2018-Aug-13 14:26N 66°30' E 012°06'0 0.0
2018-Aug-13 13:59N 66°30' E 012°06'0 0.0
2018-Aug-13 13:29N 66°30' E 012°06'0 0.0
2018-Aug-13 12:59N 66°30' E 012°06'0 0.0
2018-Aug-13 12:29N 66°30' E 012°06'0 0.0
2018-Aug-13 11:59N 66°30' E 012°06'0 0.0
2018-Aug-13 11:29N 66°30' E 012°06'0 0.0
2018-Aug-13 10:59N 66°30' E 012°06'0 0.0
2018-Aug-13 10:29N 66°30' E 012°06'0 0.0
2018-Aug-13 09:59N 66°30' E 012°06'0 0.0
2018-Aug-13 09:29N 66°30' E 012°06'0 0.0
2018-Aug-13 08:53N 66°30' E 012°06'0 0.0
2018-Aug-13 08:29N 66°30' E 012°06'0 0.0
2018-Aug-13 07:59N 66°30' E 012°06'0 0.0
2018-Aug-13 07:29N 66°30' E 012°06'0 0.0
2018-Aug-13 06:59N 66°30' E 012°06'0 0.0
2018-Aug-13 06:26N 66°30' E 012°06'0 0.0
2018-Aug-13 05:59N 66°30' E 012°06'0 0.0
2018-Aug-13 05:29N 66°30' E 012°06'0 0.0
2018-Aug-13 04:59N 66°30' E 012°06'0 0.0
2018-Aug-13 04:29N 66°30' E 012°06'0 0.0
2018-Aug-13 03:59N 66°30' E 012°06'0 0.0
2018-Aug-13 03:29N 66°30' E 012°06'0 0.0
2018-Aug-13 02:59N 66°30' E 012°06'0 0.0
2018-Aug-13 02:29N 66°30' E 012°06'0 0.0
2018-Aug-13 01:59N 66°30' E 012°06'0 0.0
2018-Aug-13 01:23N 66°30' E 012°06'0 0.0
2018-Aug-13 00:59N 66°30' E 012°06'0 0.0
2018-Aug-13 00:29N 66°30' E 012°06'0 0.0
2018-Aug-12 23:59N 66°30' E 012°06'0 0.0
2018-Aug-12 23:29N 66°30' E 012°06'0 0.0
2018-Aug-12 22:59N 66°30' E 012°06'0 0.0
2018-Aug-12 22:29N 66°30' E 012°06'0 0.0
2018-Aug-12 21:59N 66°30' E 012°06'0 0.0
2018-Aug-12 21:29N 66°30' E 012°06'0 0.0
2018-Aug-12 20:59N 66°30' E 012°06'0 0.0
2018-Aug-12 20:29N 66°30' E 012°06'0 0.0
2018-Aug-12 19:59N 66°30' E 012°06'0 0.0
2018-Aug-12 19:29N 66°30' E 012°06'0 0.0
2018-Aug-12 18:59N 66°30' E 012°06'0 0.0
2018-Aug-12 18:29N 66°30' E 012°06'0 0.0
2018-Aug-12 17:59N 66°30' E 012°06'0 0.0
2018-Aug-12 17:29N 66°30' E 012°06'0 0.0
2018-Aug-12 16:59N 66°30' E 012°06'0 0.0
2018-Aug-12 16:29N 66°30' E 012°06'0 0.0
2018-Aug-12 15:59N 66°30' E 012°06'0 0.0
2018-Aug-12 15:29N 66°30' E 012°06'0 0.0
2018-Aug-12 14:59N 66°30' E 012°06'0 0.0
2018-Aug-12 14:29N 66°30' E 012°06'0 0.0
2018-Aug-12 13:59N 66°30' E 012°06'0 0.0
2018-Aug-12 13:29N 66°30' E 012°06'0 0.0
2018-Aug-12 12:59N 66°30' E 012°06'0 0.0
2018-Aug-12 12:29N 66°30' E 012°06'0 0.0
2018-Aug-12 11:59N 66°30' E 012°06'0 0.0
2018-Aug-12 11:29N 66°30' E 012°06'0 0.0
2018-Aug-12 10:59N 66°30' E 012°06'0 0.0
2018-Aug-12 10:29N 66°30' E 012°06'0 0.0
2018-Aug-12 09:59N 66°30' E 012°06'0 0.0
2018-Aug-12 09:29N 66°30' E 012°06'0 0.0
2018-Aug-12 08:59N 66°30' E 012°06'0 0.0
2018-Aug-12 08:29N 66°30' E 012°06'0 0.0
2018-Aug-12 07:59N 66°30' E 012°06'0 0.0
2018-Aug-12 07:29N 66°30' E 012°06'0 0.0
2018-Aug-12 06:59N 66°30' E 012°06'0 0.0
2018-Aug-12 06:29N 66°30' E 012°06'0 0.0
2018-Aug-12 05:59N 66°30' E 012°06'0 0.0
2018-Aug-12 05:29N 66°30' E 012°06'0 0.0
2018-Aug-12 04:59N 66°30' E 012°06'0 0.0
2018-Aug-12 04:29N 66°30' E 012°06'0 0.0
2018-Aug-12 03:59N 66°30' E 012°06'0 0.0
2018-Aug-12 03:29N 66°30' E 012°06'0 0.0
2018-Aug-12 02:59N 66°30' E 012°06'0 0.0
2018-Aug-12 02:29N 66°30' E 012°06'0 0.0
2018-Aug-12 01:56N 66°30' E 012°06'0 0.0
2018-Aug-12 01:29N 66°30' E 012°06'0 0.0
2018-Aug-12 00:59N 66°30' E 012°06'0 0.0
2018-Aug-12 00:29N 66°30' E 012°06'0 0.0
2018-Aug-11 23:59N 66°30' E 012°06'0 0.0
2018-Aug-11 23:29N 66°30' E 012°06'0 0.0
2018-Aug-11 22:59N 66°30' E 012°06'0 0.0
2018-Aug-11 22:29N 66°30' E 012°06'0 0.0
2018-Aug-11 21:59N 66°30' E 012°06'0 0.0
2018-Aug-11 21:29N 66°30' E 012°06'0 0.0
2018-Aug-11 20:59N 66°30' E 012°06'0 0.0
2018-Aug-11 20:29N 66°30' E 012°06'0 0.0
2018-Aug-11 19:59N 66°30' E 012°06'0 0.0
2018-Aug-11 19:29N 66°30' E 012°06'0 0.0
2018-Aug-11 18:59N 66°30' E 012°06'0 0.0
2018-Aug-11 18:29N 66°30' E 012°06'0 0.0
2018-Aug-11 17:59N 66°30' E 012°06'0 0.0
2018-Aug-11 17:29N 66°30' E 012°06'0 0.0
2018-Aug-11 16:59N 66°30' E 012°06'0 0.0
2018-Aug-11 16:26N 66°30' E 012°06'0 0.0
2018-Aug-11 15:59N 66°30' E 012°06'0 0.0
2018-Aug-11 15:29N 66°30' E 012°06'0 0.0
2018-Aug-11 14:59N 66°30' E 012°06'0 0.0
2018-Aug-11 14:29N 66°30' E 012°06'0 0.0
2018-Aug-11 13:59N 66°30' E 012°06'0 0.0
2018-Aug-11 13:29N 66°30' E 012°06'0 0.0
2018-Aug-11 12:59N 66°30' E 012°06'0 0.0
2018-Aug-11 12:29N 66°30' E 012°06'0 0.0
2018-Aug-11 11:59N 66°30' E 012°06'0 0.0
2018-Aug-11 11:29N 66°30' E 012°06'0 0.0
2018-Aug-11 10:59N 66°30' E 012°06'0 0.0
2018-Aug-11 10:29N 66°30' E 012°06'0 0.0
2018-Aug-11 09:59N 66°30' E 012°06'0 0.0
2018-Aug-11 09:29N 66°30' E 012°06'0 0.0
2018-Aug-11 08:59N 66°30' E 012°06'0 0.0
2018-Aug-11 08:29N 66°30' E 012°06'0 0.0
2018-Aug-11 07:59N 66°30' E 012°06'0 0.0
2018-Aug-11 07:29N 66°30' E 012°06'0 0.0
2018-Aug-11 06:59N 66°30' E 012°06'0 0.0
2018-Aug-11 06:29N 66°30' E 012°06'0 0.0
2018-Aug-11 05:59N 66°30' E 012°06'0 0.0
2018-Aug-11 05:29N 66°30' E 012°06'0 0.0
2018-Aug-11 04:59N 66°30' E 012°06'0 0.0
2018-Aug-11 04:29N 66°30' E 012°06'0 0.0
2018-Aug-11 03:59N 66°30' E 012°06'0 0.0
2018-Aug-11 03:29N 66°30' E 012°06'0 0.0
2018-Aug-11 02:59N 66°30' E 012°06'0 0.0
2018-Aug-11 02:29N 66°30' E 012°06'0 0.0
2018-Aug-11 01:59N 66°30' E 012°06'0 0.0
2018-Aug-11 01:29N 66°30' E 012°06'0 0.0
2018-Aug-11 00:59N 66°30' E 012°06'0 0.0
2018-Aug-11 00:29N 66°30' E 012°06'0 0.0
2018-Aug-10 23:59N 66°30' E 012°06'0 0.0
2018-Aug-10 23:29N 66°30' E 012°06'0 0.0
2018-Aug-10 22:59N 66°30' E 012°06'0 0.0
2018-Aug-10 22:29N 66°30' E 012°06'0 0.0
2018-Aug-10 21:59N 66°30' E 012°06'0 0.0
2018-Aug-10 21:29N 66°30' E 012°06'0 0.0
2018-Aug-10 20:59N 66°30' E 012°06'0 0.0
2018-Aug-10 20:29N 66°30' E 012°06'0 0.0
2018-Aug-10 19:59N 66°30' E 012°06'0 0.0
2018-Aug-10 19:29N 66°30' E 012°06'0 0.0
2018-Aug-10 18:59N 66°30' E 012°06'0 0.0
2018-Aug-10 18:29N 66°30' E 012°06'0 0.0
2018-Aug-10 17:53N 66°30' E 012°06'0 0.0
2018-Aug-10 17:29N 66°30' E 012°06'0 0.0
2018-Aug-10 16:59N 66°30' E 012°06'0 0.0
2018-Aug-10 16:29N 66°30' E 012°06'0 0.0
2018-Aug-10 15:59N 66°30' E 012°06'0 0.0
2018-Aug-10 15:29N 66°30' E 012°06'0 0.0
2018-Aug-10 14:59N 66°30' E 012°06'0 0.0
2018-Aug-10 14:29N 66°30' E 012°06'0 0.0
2018-Aug-10 13:56N 66°30' E 012°06'0 0.0
2018-Aug-10 13:29N 66°30' E 012°06'0 0.0
2018-Aug-10 12:59N 66°30' E 012°06'0 0.0
2018-Aug-10 12:29N 66°30' E 012°06'0 0.0
2018-Aug-10 11:59N 66°30' E 012°06'0 0.0
2018-Aug-10 11:29N 66°30' E 012°06'0 0.0
2018-Aug-10 10:59N 66°30' E 012°06'0 0.0
2018-Aug-10 10:29N 66°30' E 012°06'0 0.0
2018-Aug-10 09:59N 66°30' E 012°06'0 0.8
2018-Aug-10 09:29N 66°30' E 012°05'1 1.8
2018-Aug-10 09:00N 66°29' E 012°04'3 6.9
2018-Aug-10 08:30N 66°31' E 011°57'1 2.3
2018-Aug-10 07:57N 66°31' E 011°53'0 0.8
2018-Aug-10 07:26N 66°32' E 011°53'1 3.3
2018-Aug-10 07:00N 66°30' E 011°54'0 0.9
2018-Aug-10 06:30N 66°31' E 011°54'1 1.3
2018-Aug-10 06:00N 66°31' E 011°53'0 0.3
2018-Aug-10 05:25N 66°31' E 011°52'0 0.6
2018-Aug-10 05:00N 66°31' E 011°53'1 2.0
2018-Aug-10 04:30N 66°30' E 011°54'0 0.8
2018-Aug-10 04:00N 66°30' E 011°54'1 1.6
2018-Aug-10 03:30N 66°29' E 011°55'1 0.8
2018-Aug-10 02:50N 66°30' E 011°55'2 4.9
2018-Aug-10 02:31N 66°30' E 011°59'3 5.7
2018-Aug-10 02:00N 66°30' E 012°06'0 0.0
2018-Aug-10 01:28N 66°30' E 012°06'0 0.0
2018-Aug-10 00:58N 66°30' E 012°06'0 0.0
2018-Aug-10 00:28N 66°30' E 012°06'0 0.0
2018-Aug-09 23:58N 66°30' E 012°06'0 0.0
2018-Aug-09 23:28N 66°30' E 012°06'0 0.0
2018-Aug-09 22:58N 66°30' E 012°06'0 0.0
2018-Aug-09 22:28N 66°30' E 012°06'0 0.0
2018-Aug-09 21:58N 66°30' E 012°06'0 0.0
2018-Aug-09 21:28N 66°30' E 012°06'0 0.0
2018-Aug-09 20:58N 66°30' E 012°06'0 0.0
2018-Aug-09 20:28N 66°30' E 012°06'0 0.0
2018-Aug-09 19:58N 66°30' E 012°06'0 0.0
2018-Aug-09 19:28N 66°30' E 012°06'0 0.0
2018-Aug-09 18:58N 66°30' E 012°06'0 0.0
2018-Aug-09 18:25N 66°30' E 012°06'0 0.0
2018-Aug-09 17:58N 66°30' E 012°06'0 0.0
2018-Aug-09 17:28N 66°30' E 012°06'0 0.0
2018-Aug-09 16:55N 66°30' E 012°06'0 0.0
2018-Aug-09 16:28N 66°30' E 012°06'0 0.0
2018-Aug-09 15:58N 66°30' E 012°06'0 0.0
2018-Aug-09 15:28N 66°30' E 012°06'0 0.0
2018-Aug-09 14:58N 66°30' E 012°06'0 0.0
2018-Aug-09 14:28N 66°30' E 012°06'0 0.0
2018-Aug-09 13:58N 66°30' E 012°06'0 0.0
2018-Aug-09 13:28N 66°30' E 012°06'0 0.0
2018-Aug-09 12:58N 66°30' E 012°06'0 0.0
2018-Aug-09 12:28N 66°30' E 012°06'0 0.0
2018-Aug-09 11:58N 66°30' E 012°06'0 0.0
2018-Aug-09 11:28N 66°30' E 012°06'0 0.0
2018-Aug-09 10:58N 66°30' E 012°06'0 0.0
2018-Aug-09 10:28N 66°30' E 012°06'0 0.0
2018-Aug-09 09:58N 66°30' E 012°06'0 0.0
2018-Aug-09 09:28N 66°30' E 012°06'0 0.0
2018-Aug-09 08:58N 66°30' E 012°06'0 0.0
2018-Aug-09 08:28N 66°30' E 012°06'0 0.0
2018-Aug-09 07:58N 66°30' E 012°06'0 0.0
2018-Aug-09 07:28N 66°30' E 012°06'0 0.0
2018-Aug-09 06:58N 66°30' E 012°06'0 0.0
2018-Aug-09 06:28N 66°30' E 012°06'0 0.0
2018-Aug-09 05:58N 66°30' E 012°06'0 0.0
2018-Aug-09 05:28N 66°30' E 012°06'0 0.0
2018-Aug-09 04:58N 66°30' E 012°06'0 0.0
2018-Aug-09 04:28N 66°30' E 012°06'0 0.0
2018-Aug-09 03:58N 66°30' E 012°06'0 0.0
2018-Aug-09 03:28N 66°30' E 012°06'0 0.0
2018-Aug-09 02:58N 66°30' E 012°06'0 0.0
2018-Aug-09 02:28N 66°30' E 012°06'0 0.0
2018-Aug-09 01:58N 66°30' E 012°06'0 0.0
2018-Aug-09 01:28N 66°30' E 012°06'0 0.0
2018-Aug-09 00:58N 66°30' E 012°06'0 0.0
2018-Aug-09 00:28N 66°30' E 012°06'0 0.0
2018-Aug-08 23:58N 66°30' E 012°06'0 0.0
2018-Aug-08 23:28N 66°30' E 012°06'0 0.0
2018-Aug-08 22:58N 66°30' E 012°06'0 0.0
2018-Aug-08 22:28N 66°30' E 012°06'0 0.0
2018-Aug-08 21:58N 66°30' E 012°06'0 0.0
2018-Aug-08 21:28N 66°30' E 012°06'0 0.0
2018-Aug-08 20:58N 66°30' E 012°06'0 0.0
2018-Aug-08 20:28N 66°30' E 012°06'0 0.0
2018-Aug-08 19:58N 66°30' E 012°06'0 0.0
2018-Aug-08 19:28N 66°30' E 012°06'0 0.0
2018-Aug-08 18:58N 66°30' E 012°06'0 0.0
2018-Aug-08 18:28N 66°30' E 012°06'0 0.0
2018-Aug-08 17:55N 66°30' E 012°06'0 0.0
2018-Aug-08 17:28N 66°30' E 012°06'0 0.0
2018-Aug-08 16:58N 66°30' E 012°06'0 0.0
2018-Aug-08 16:28N 66°30' E 012°06'0 0.0
2018-Aug-08 15:58N 66°30' E 012°06'0 0.0
2018-Aug-08 15:28N 66°30' E 012°06'0 0.0
2018-Aug-08 14:58N 66°30' E 012°06'0 0.0
2018-Aug-08 14:28N 66°30' E 012°06'0 0.0
2018-Aug-08 13:58N 66°30' E 012°06'0 0.0
2018-Aug-08 13:28N 66°30' E 012°06'0 0.0
2018-Aug-08 12:58N 66°30' E 012°06'0 0.0
2018-Aug-08 12:28N 66°30' E 012°06'0 0.0
2018-Aug-08 11:58N 66°30' E 012°06'0 0.0
2018-Aug-08 11:28N 66°30' E 012°06'0 0.8
2018-Aug-08 11:00N 66°30' E 012°05'0 0.0
2018-Aug-08 10:30N 66°30' E 012°05'2 3.8
2018-Aug-08 10:00N 66°31' E 012°02'3 5.7
2018-Aug-08 09:30N 66°33' E 011°56'1 1.5
2018-Aug-08 08:56N 66°32' E 011°54'0 0.7
2018-Aug-08 08:26N 66°32' E 011°54'1 1.1
2018-Aug-08 07:59N 66°33' E 011°55'0 0.3
2018-Aug-08 07:26N 66°33' E 011°55'2 3.3
2018-Aug-08 06:56N 66°35' E 011°56'1 3.2
2018-Aug-08 06:30N 66°35' E 011°59'1 1.0
2018-Aug-08 05:58N 66°36' E 011°60'1 1.0
2018-Aug-08 05:27N 66°36' E 012°00'0 0.8
2018-Aug-08 05:00N 66°36' E 012°01'0 0.7
2018-Aug-08 04:30N 66°36' E 012°01'1 0.9
2018-Aug-08 03:53N 66°36' E 012°02'2 2.1
2018-Aug-08 03:07N 66°35' E 012°04'1 7.0
2018-Aug-08 03:00N 66°34' E 012°05'3 7.0
2018-Aug-08 02:30N 66°30' E 012°07'1 1.1
2018-Aug-08 02:00N 66°30' E 012°06'0 0.0
2018-Aug-08 01:30N 66°30' E 012°06'0 0.0
2018-Aug-08 01:00N 66°30' E 012°06'0 0.0
2018-Aug-08 00:30N 66°30' E 012°06'0 0.0
2018-Aug-08 00:00N 66°30' E 012°06'0 0.0
2018-Aug-07 23:30N 66°30' E 012°06'0 0.0
2018-Aug-07 23:00N 66°30' E 012°06'0 0.0
2018-Aug-07 22:30N 66°30' E 012°06'0 0.0
2018-Aug-07 21:57N 66°30' E 012°06'0 0.0
2018-Aug-07 21:30N 66°30' E 012°06'0 0.0
2018-Aug-07 21:00N 66°30' E 012°06'0 0.0
2018-Aug-07 20:30N 66°30' E 012°06'0 0.0
2018-Aug-07 20:00N 66°30' E 012°06'0 0.0
2018-Aug-07 19:30N 66°30' E 012°06'0 0.0
2018-Aug-07 19:00N 66°30' E 012°06'0 0.0
2018-Aug-07 18:30N 66°30' E 012°06'0 0.0
2018-Aug-07 18:00N 66°30' E 012°06'0 0.0
2018-Aug-07 17:27N 66°30' E 012°06'0 0.0
2018-Aug-07 17:00N 66°30' E 012°06'0 0.0
2018-Aug-07 16:30N 66°30' E 012°06'0 0.0
2018-Aug-07 16:00N 66°30' E 012°06'0 0.0
2018-Aug-07 15:30N 66°30' E 012°06'0 0.0
2018-Aug-07 15:00N 66°30' E 012°06'0 0.0
2018-Aug-07 14:30N 66°30' E 012°06'0 0.0
2018-Aug-07 13:57N 66°30' E 012°06'0 0.0
2018-Aug-07 13:30N 66°30' E 012°06'0 0.0
2018-Aug-07 13:00N 66°30' E 012°06'0 0.0
2018-Aug-07 12:30N 66°30' E 012°06'0 0.0
2018-Aug-07 12:00N 66°30' E 012°06'0 0.0
2018-Aug-07 11:30N 66°30' E 012°06'0 0.0
2018-Aug-07 11:00N 66°30' E 012°06'0 0.0
2018-Aug-07 10:30N 66°30' E 012°06'0 0.0
2018-Aug-07 10:00N 66°30' E 012°06'0 0.0
2018-Aug-07 09:31N 66°30' E 012°06'0 0.0
2018-Aug-07 09:01N 66°30' E 012°06'0 0.0
2018-Aug-07 08:31N 66°30' E 012°06'0 0.0
2018-Aug-07 08:01N 66°30' E 012°06'0 0.0
2018-Aug-07 07:30N 66°30' E 012°06'0 0.0
2018-Aug-07 07:01N 66°30' E 012°06'0 0.0
2018-Aug-07 06:31N 66°30' E 012°06'0 0.0
2018-Aug-07 06:01N 66°30' E 012°06'0 0.0
2018-Aug-07 05:31N 66°30' E 012°06'0 0.0
2018-Aug-07 04:58N 66°30' E 012°06'0 0.0
2018-Aug-07 04:28N 66°30' E 012°06'0 0.0
2018-Aug-07 03:58N 66°30' E 012°06'0 0.0
2018-Aug-07 03:28N 66°30' E 012°06'0 0.0
2018-Aug-07 02:58N 66°30' E 012°06'0 0.0
2018-Aug-07 02:28N 66°30' E 012°06'0 0.0
2018-Aug-07 01:58N 66°30' E 012°06'0 0.0
2018-Aug-07 01:28N 66°30' E 012°06'0 0.0
2018-Aug-07 00:55N 66°30' E 012°06'0 0.0
2018-Aug-07 00:22N 66°30' E 012°06'0 0.0
2018-Aug-06 23:58N 66°30' E 012°06'0 0.0
2018-Aug-06 23:28N 66°30' E 012°06'0 0.0
2018-Aug-06 22:58N 66°30' E 012°06'0 0.0
2018-Aug-06 22:28N 66°30' E 012°06'0 0.0
2018-Aug-06 21:55N 66°30' E 012°06'0 0.0
2018-Aug-06 21:28N 66°30' E 012°06'0 0.0
2018-Aug-06 20:58N 66°30' E 012°06'0 0.0
2018-Aug-06 20:28N 66°30' E 012°06'  

Dump ship's entire track history